OIMB

Details ICAO OIMB (XBJ)
Name BIRJAND
Region Iran
Timezone Asia/Tehran (UTC+3.5)
Plans Departing 1
Arriving 4
Stats Elevation 4,952 ft / 1,509 m (AMSL)
Location 32.895739° 59.275698°
Runways 2
Magnetic Variation 3.387° E
Sunrise 2017-12-16 03:00:06 UTC / 2017-12-16 06:30:06 Local
Sunset 2017-12-16 12:59:35 UTC / 2017-12-16 16:29:35 Local
Advertisement - Login to hide

Runways

ID Width Length Bearing (true) Bearing (mag) Surface Threshold Offset Overrun Length
08 82 ft / 25 m 7,083 ft / 2,159 m 78.64° 75.25° Asphalt 0 ft / 0 m 0 ft / 0 m
10 148 ft / 45 m 9,504 ft / 2,897 m 98.77° 95.38° Asphalt 820 ft / 250 m 393 ft / 120 m
26 82 ft / 25 m 7,083 ft / 2,159 m 258.65° 255.26° Asphalt 0 ft / 0 m 0 ft / 0 m
28 148 ft / 45 m 9,504 ft / 2,897 m 278.78° 275.39° Asphalt 0 ft / 0 m 393 ft / 120 m

Map

Weather


0- 5 10 15 20 25 30 35+ Temperature / ° C

Clouds and Precipitation
Forecast for 2017-12-16 12:00 UTC. Updated 2 hours ago

Ground ~20,000 ft ~40,000 ft Winds

METAR

OIMB 161300Z 32010KT 9999 FEW035 SCT200 12/M08 Q1023

TAF

Not found

Frequencies

Tower 121.70 MHz INFO
Tower 127.10 MHz INFO
Warning: Do not use this data for real-world aviation or navigation. No guarantee of current accuracy is given.